モントリオール/トルドー の空港の天気 - METARとTAF

モントリオール・ピエール・エリオット・トルドー国際空港 ( CYUL / YUL ) - カナダ ケベック州モントリオール
飛行場実況気象(Metar)
観測時間03/26 03:00 EDT (03/26 07:00 UTC)
風向・風速北東 4m/s
視程10km以上
天気現象
なし
気温-6℃
湿度63%
気圧1033.7hPa
METARCYUL 260700Z 05007KT 15SM SKC M06/M12 A3052 RMK SLP337
過去の天気等 Google飛行場航空写真 Wunderground天気予報

過去48時間のMETAR

飛行場予報(TAF)
発表時間: 3/26 01:38 EDT (3/26 05:38 UTC)
予報対象時間: 26日2時 EDT ~ 27日2時 EDT
風向・風速北 4m/s
視程10km以上
なし
26日3時 EDT ~ 26日5時 EDT に徐々に
風向・風速北北東 6m/s
26日13時 EDT から
風向・風速北東 8m/s
視程10km以上
全天の8割程度の雲 雲底高度 3,660m
全天を覆う雲 雲底高度 6,100m
26日19時 EDT から
風向・風速東北東 6m/s
視程10km以上
天気現象弱い氷雨
全天を覆う雲 雲底高度 1,220m
26日23時 EDT から
風向・風速東 5m/s
視程8,050m
天気現象弱い雨 もや
全天を覆う雲 雲底高度 460m
TAF CYUL 260538Z 2606/2706 01007KT P6SM SKC
BECMG 2607/2609 03012KT
FM261700 05015KT P6SM BKN120 OVC200
FM262300 06012KT P6SM -FZRA OVC040
FM270300 09010KT 5SM -RA BR OVC015 RMK NXT FCST BY 260900Z